createdAt,value
2024-04-18T00:01:23.361Z,7.87
2024-04-18T00:03:50.219Z,7.67
2024-04-18T00:06:16.850Z,8.30
2024-04-18T00:08:43.478Z,8.87
2024-04-18T00:11:10.024Z,8.70
2024-04-18T00:13:36.708Z,8.17
2024-04-18T00:16:03.373Z,10.30
2024-04-18T00:18:31.635Z,9.70
2024-04-18T00:20:58.308Z,10.63
2024-04-18T00:23:24.915Z,10.93
2024-04-18T00:25:51.492Z,11.45
2024-04-18T00:28:18.020Z,10.80
2024-04-18T00:30:44.855Z,11.00
2024-04-18T00:33:12.817Z,10.63
2024-04-18T00:35:40.445Z,10.32
2024-04-18T00:38:07.023Z,10.77
2024-04-18T00:40:34.838Z,12.30
2024-04-18T00:43:01.434Z,11.60
2024-04-18T00:45:28.059Z,12.63
2024-04-18T00:47:54.973Z,13.00
2024-04-18T00:50:22.144Z,12.68
2024-04-18T00:52:48.952Z,11.27
2024-04-18T00:55:16.096Z,11.38
2024-04-18T00:57:42.996Z,11.20
2024-04-18T01:00:11.314Z,11.85
2024-04-18T01:02:38.624Z,11.23
2024-04-18T01:05:05.916Z,12.45
2024-04-18T01:07:32.571Z,11.75
2024-04-18T01:10:01.530Z,12.30
2024-04-18T01:12:28.141Z,13.02
2024-04-18T01:14:54.936Z,13.13
2024-04-18T01:17:21.577Z,12.05
2024-04-18T01:19:48.251Z,11.85
2024-04-18T01:22:15.155Z,12.73
2024-04-18T01:24:42.213Z,11.85
2024-04-18T01:27:08.836Z,12.13
2024-04-18T01:29:35.466Z,11.85
2024-04-18T01:32:02.036Z,11.43
2024-04-18T01:34:28.759Z,12.23
2024-04-18T01:36:55.920Z,12.65
2024-04-18T01:39:22.617Z,12.57
2024-04-18T01:41:49.231Z,12.00
2024-04-18T01:44:15.782Z,12.20
2024-04-18T01:46:42.479Z,11.23
2024-04-18T01:49:11.748Z,11.95
2024-04-18T01:51:39.897Z,12.70
2024-04-18T01:54:07.976Z,12.47
2024-04-18T01:56:34.580Z,12.00
2024-04-18T01:59:05.703Z,13.97
2024-04-18T02:01:33.593Z,13.07
2024-04-18T02:04:00.273Z,14.57
2024-04-18T02:06:27.081Z,13.45
2024-04-18T02:08:53.908Z,13.93
2024-04-18T02:11:20.758Z,14.60
2024-04-18T02:13:47.714Z,13.40
2024-04-18T02:16:14.285Z,14.60
2024-04-18T02:18:40.991Z,14.63
2024-04-18T02:21:07.604Z,14.40
2024-04-18T02:23:34.251Z,16.33
2024-04-18T02:26:00.805Z,15.17
2024-04-18T02:28:27.615Z,15.73
2024-04-18T02:30:54.289Z,15.93
2024-04-18T02:33:21.315Z,15.53
2024-04-18T02:35:48.563Z,14.90
2024-04-18T02:38:16.336Z,17.30
2024-04-18T02:40:42.931Z,16.30
2024-04-18T02:43:09.561Z,15.70
2024-04-18T02:45:36.197Z,16.73
2024-04-18T02:48:02.820Z,17.73
2024-04-18T02:50:29.460Z,17.13
2024-04-18T02:52:56.063Z,17.43
2024-04-18T02:55:22.610Z,17.03
2024-04-18T02:57:49.272Z,17.27
2024-04-18T03:00:16.087Z,17.80
2024-04-18T03:02:42.727Z,16.53
2024-04-18T03:05:09.341Z,18.07
2024-04-18T03:07:35.941Z,18.20
2024-04-18T03:10:02.520Z,17.43
2024-04-18T03:12:29.221Z,16.93
2024-04-18T03:14:55.846Z,19.60
2024-04-18T03:17:22.435Z,17.57
2024-04-18T03:19:48.994Z,18.07
2024-04-18T03:22:15.555Z,16.93
2024-04-18T03:24:42.162Z,18.87
2024-04-18T03:27:08.808Z,17.43
2024-04-18T03:29:35.363Z,18.97
2024-04-18T03:32:07.105Z,20.10
2024-04-18T03:34:33.953Z,18.40
2024-04-18T03:37:00.527Z,19.37
2024-04-18T03:39:30.601Z,20.43
2024-04-18T03:41:57.191Z,19.50
2024-04-18T03:44:24.221Z,18.10
2024-04-18T03:46:50.921Z,19.80
2024-04-18T03:49:17.528Z,20.17
2024-04-18T03:51:44.107Z,22.07
2024-04-18T03:54:10.915Z,19.43
2024-04-18T03:56:37.521Z,19.60
2024-04-18T03:59:04.445Z,19.73
2024-04-18T04:01:31.310Z,18.17
2024-04-18T04:03:58.238Z,17.67
2024-04-18T04:06:25.072Z,18.00
2024-04-18T04:08:51.778Z,16.83
2024-04-18T04:11:19.443Z,17.37
2024-04-18T04:13:47.260Z,16.37
2024-04-18T04:16:14.013Z,18.37
2024-04-18T04:18:40.910Z,18.40
2024-04-18T04:21:08.943Z,18.93
2024-04-18T04:23:36.059Z,17.47
2024-04-18T04:26:02.607Z,16.57
2024-04-18T04:28:29.394Z,16.83
2024-04-18T04:30:56.002Z,18.17
2024-04-18T04:33:22.837Z,15.90
2024-04-18T04:35:49.541Z,16.70
2024-04-18T04:38:16.174Z,15.77
2024-04-18T04:40:42.791Z,16.97
2024-04-18T04:43:09.366Z,16.27
2024-04-18T04:45:36.050Z,16.20
2024-04-18T04:48:02.755Z,16.23
2024-04-18T04:50:29.920Z,15.40
2024-04-18T04:52:56.704Z,17.43
2024-04-18T04:55:23.360Z,16.93
2024-04-18T04:57:49.996Z,16.43
2024-04-18T05:00:16.959Z,16.27
2024-04-18T05:02:44.415Z,16.23
2024-04-18T05:05:13.170Z,16.47
2024-04-18T05:07:39.738Z,14.53
2024-04-18T05:10:07.584Z,14.63
2024-04-18T05:12:35.358Z,15.87
2024-04-18T05:15:02.015Z,15.00
2024-04-18T05:17:28.888Z,15.30
2024-04-18T05:19:55.469Z,14.93
2024-04-18T05:22:22.098Z,16.50
2024-04-18T05:24:48.814Z,17.20
2024-04-18T05:27:15.418Z,16.43
2024-04-18T05:30:00.507Z,17.17
2024-04-18T05:32:27.758Z,18.02
2024-04-18T05:34:54.433Z,14.87
2024-04-18T05:37:23.094Z,15.63
2024-04-18T05:39:50.112Z,16.67
2024-04-18T05:42:16.840Z,15.60
2024-04-18T05:44:44.447Z,15.10
2024-04-18T05:47:11.021Z,14.40
2024-04-18T05:49:38.982Z,13.50
2024-04-18T05:52:05.523Z,14.30
2024-04-18T05:54:32.750Z,12.73
2024-04-18T05:57:00.423Z,13.37
2024-04-18T05:59:27.055Z,12.37
2024-04-18T06:01:53.595Z,11.53
2024-04-18T06:04:20.205Z,11.95
2024-04-18T06:06:47.431Z,11.03
2024-04-18T06:09:14.073Z,10.37
2024-04-18T06:11:46.816Z,10.73
2024-04-18T06:14:13.468Z,10.65
2024-04-18T06:16:40.033Z,11.13
2024-04-18T06:19:08.246Z,8.95
2024-04-18T06:21:34.838Z,10.73
2024-04-18T06:24:01.399Z,9.35
2024-04-18T06:26:28.110Z,8.82
2024-04-18T06:28:54.695Z,8.90
2024-04-18T06:31:21.337Z,8.35
2024-04-18T06:33:48.152Z,7.70
2024-04-18T06:36:14.886Z,7.65
2024-04-18T06:38:41.432Z,7.40
2024-04-18T06:41:08.085Z,6.78
2024-04-18T06:43:34.770Z,6.57
2024-04-18T06:46:02.051Z,5.28
2024-04-18T06:48:28.853Z,6.07
2024-04-18T06:50:55.445Z,4.63
2024-04-18T06:53:22.052Z,4.28
2024-04-18T06:55:48.903Z,4.13
2024-04-18T06:58:15.632Z,4.72
2024-04-18T07:00:43.273Z,3.85
2024-04-18T07:03:13.268Z,3.72
2024-04-18T07:05:40.538Z,4.35
2024-04-18T07:08:07.322Z,4.00
2024-04-18T07:10:35.391Z,3.35
2024-04-18T07:13:02.156Z,2.97
2024-04-18T07:15:28.935Z,4.07
2024-04-18T07:17:57.552Z,3.92
2024-04-18T07:20:24.827Z,3.10
2024-04-18T07:22:51.584Z,2.22
2024-04-18T07:25:18.184Z,2.63
2024-04-18T07:27:45.453Z,2.60
2024-04-18T07:30:12.165Z,2.38
2024-04-18T07:32:38.836Z,1.88
2024-04-18T07:35:05.981Z,1.63
2024-04-18T07:37:32.982Z,1.40
2024-04-18T07:40:02.594Z,2.20
2024-04-18T07:42:29.263Z,1.73
2024-04-18T07:44:55.804Z,1.63
2024-04-18T07:47:25.057Z,2.72
2024-04-18T07:49:51.842Z,1.70
2024-04-18T07:52:18.635Z,1.40
2024-04-18T07:54:45.663Z,1.75
2024-04-18T07:57:13.520Z,1.20
2024-04-18T07:59:42.002Z,1.25
2024-04-18T08:02:10.428Z,1.77
2024-04-18T08:04:52.872Z,2.65
2024-04-18T08:07:26.930Z,1.10
2024-04-18T08:09:59.691Z,1.23
2024-04-18T08:12:34.535Z,1.48
2024-04-18T08:15:08.780Z,1.20
2024-04-18T08:17:38.875Z,1.65
2024-04-18T08:20:07.707Z,1.30
2024-04-18T08:22:35.395Z,1.40
2024-04-18T08:25:06.906Z,1.23
2024-04-18T08:27:35.229Z,1.23
2024-04-18T08:30:03.966Z,1.08
2024-04-18T08:32:30.565Z,1.42
2024-04-18T08:34:59.115Z,1.60
2024-04-18T08:37:26.771Z,1.73
2024-04-18T08:39:59.372Z,2.10
2024-04-18T08:42:28.647Z,1.77
2024-04-18T08:44:58.434Z,2.13
2024-04-18T08:47:27.765Z,1.58
2024-04-18T08:49:55.727Z,2.60
2024-04-18T08:52:23.068Z,1.30
2024-04-18T08:54:50.660Z,1.35
2024-04-18T08:57:23.406Z,1.20
2024-04-18T09:00:05.376Z,1.13
2024-04-18T09:02:34.816Z,1.90
2024-04-18T09:05:01.743Z,1.23
2024-04-18T09:07:28.309Z,1.40
2024-04-18T09:10:09.223Z,1.55
2024-04-18T09:12:36.911Z,1.10
2024-04-18T09:15:05.098Z,1.50
2024-04-18T09:17:31.992Z,1.38
2024-04-18T09:19:59.142Z,1.77
2024-04-18T09:22:26.965Z,1.20
2024-04-18T09:24:59.260Z,0.95
2024-04-18T09:27:25.894Z,1.15
2024-04-18T09:29:52.501Z,1.33
2024-04-18T09:32:19.307Z,1.35
2024-04-18T09:34:51.850Z,1.20
2024-04-18T09:37:23.300Z,0.80
2024-04-18T09:39:54.377Z,1.67
2024-04-18T09:42:47.934Z,1.58
2024-04-18T09:45:20.144Z,1.05
2024-04-18T09:47:48.510Z,1.10
2024-04-18T09:50:16.159Z,1.17
2024-04-18T09:52:48.501Z,2.08
2024-04-18T09:55:15.966Z,0.95
2024-04-18T09:57:45.110Z,1.08
2024-04-18T10:00:14.605Z,3.00
2024-04-18T10:02:42.787Z,2.17
2024-04-18T10:05:11.253Z,1.60
2024-04-18T10:07:41.702Z,1.10
2024-04-18T10:10:10.523Z,1.27
2024-04-18T10:12:39.396Z,0.80
2024-04-18T10:15:11.246Z,4.03
2024-04-18T10:17:39.730Z,1.40
2024-04-18T10:20:09.164Z,9.05
2024-04-18T10:22:46.780Z,1.83
2024-04-18T10:25:22.068Z,1.40
2024-04-18T10:27:51.602Z,1.08
2024-04-18T10:30:23.826Z,0.90
2024-04-18T10:32:54.616Z,0.80
2024-04-18T10:35:26.521Z,1.13
2024-04-18T10:37:56.014Z,1.10
2024-04-18T10:40:23.315Z,0.95
2024-04-18T10:42:51.529Z,1.00
2024-04-18T10:45:19.693Z,1.70
2024-04-18T10:47:52.838Z,0.85
2024-04-18T10:50:20.326Z,0.85
2024-04-18T10:52:48.256Z,0.52
2024-04-18T10:55:15.760Z,1.58
2024-04-18T10:57:43.960Z,0.63
2024-04-18T11:00:19.464Z,0.93
2024-04-18T11:02:49.102Z,1.05
2024-04-18T11:05:15.748Z,1.23
2024-04-18T11:07:42.383Z,1.30
2024-04-18T11:10:14.433Z,0.70
2024-04-18T11:12:43.376Z,0.50
2024-04-18T11:15:11.342Z,0.55
2024-04-18T11:17:39.320Z,0.60
2024-04-18T11:20:14.940Z,0.70
2024-04-18T11:22:53.497Z,0.50
2024-04-18T11:25:23.750Z,0.30
2024-04-18T11:27:51.876Z,0.60
2024-04-18T11:30:20.331Z,0.60
2024-04-18T11:32:58.561Z,0.70
2024-04-18T11:35:27.813Z,0.85
2024-04-18T11:37:58.757Z,0.77
2024-04-18T11:40:31.171Z,0.95
2024-04-18T11:42:59.124Z,0.65
2024-04-18T11:45:27.195Z,0.50
2024-04-18T11:48:08.730Z,0.70
2024-04-18T11:50:35.783Z,0.75
2024-04-18T11:53:05.159Z,0.55
2024-04-18T11:55:31.883Z,1.15
2024-04-18T11:58:02.972Z,0.60
2024-04-18T12:00:39.224Z,0.60
2024-04-18T12:03:07.388Z,0.60
2024-04-18T12:05:35.672Z,0.65
2024-04-18T12:08:06.623Z,0.65
2024-04-18T12:10:42.471Z,0.40
2024-04-18T12:13:19.265Z,0.52
2024-04-18T12:15:47.326Z,0.40
2024-04-18T12:18:15.029Z,0.40
2024-04-18T12:20:44.080Z,0.35
2024-04-18T12:23:10.625Z,0.45
2024-04-18T12:25:37.189Z,0.43
2024-04-18T12:28:03.943Z,0.57
2024-04-18T12:30:31.408Z,0.85
2024-04-18T12:32:59.574Z,0.70
2024-04-18T12:35:27.152Z,0.63
2024-04-18T12:37:55.559Z,0.60
2024-04-18T12:40:25.248Z,0.77
2024-04-18T12:42:52.041Z,0.50
2024-04-18T12:45:19.281Z,0.30
2024-04-18T12:47:46.907Z,0.60
2024-04-18T12:50:14.345Z,0.70
2024-04-18T12:52:41.104Z,0.60
2024-04-18T12:55:07.684Z,1.08
2024-04-18T12:57:34.371Z,0.47
2024-04-18T13:00:00.998Z,0.40
2024-04-18T13:02:27.680Z,0.80
2024-04-18T13:04:55.786Z,1.13
2024-04-18T13:07:23.485Z,0.82
2024-04-18T13:09:51.199Z,0.65
2024-04-18T13:12:19.048Z,0.80
2024-04-18T13:14:47.213Z,0.55
2024-04-18T13:17:15.088Z,0.77
2024-04-18T13:19:43.967Z,0.82
2024-04-18T13:22:10.561Z,0.75
2024-04-18T13:24:38.460Z,0.88
2024-04-18T13:27:06.644Z,1.00
2024-04-18T13:29:34.360Z,0.98
2024-04-18T13:32:03.220Z,1.33
2024-04-18T13:34:30.554Z,1.88
2024-04-18T13:36:57.396Z,0.60
2024-04-18T13:39:27.788Z,0.82
2024-04-18T13:41:56.765Z,0.60
2024-04-18T13:44:27.943Z,1.10
2024-04-18T13:47:07.544Z,0.68
2024-04-18T13:49:34.264Z,1.10
2024-04-18T13:52:03.204Z,0.73
2024-04-18T13:54:31.265Z,0.52
2024-04-18T13:57:01.595Z,0.82
2024-04-18T13:59:28.192Z,0.60
2024-04-18T14:01:55.148Z,0.50
2024-04-18T14:04:27.000Z,0.60
2024-04-18T14:06:54.183Z,0.75
2024-04-18T14:09:30.341Z,1.10
2024-04-18T14:11:58.474Z,0.57
2024-04-18T14:14:27.715Z,0.70
2024-04-18T14:17:16.144Z,0.57
2024-04-18T14:19:42.685Z,0.50
2024-04-18T14:22:11.213Z,0.50
2024-04-18T14:24:41.522Z,0.52
2024-04-18T14:27:11.380Z,0.80
2024-04-18T14:29:38.972Z,0.65
2024-04-18T14:32:06.752Z,0.75
2024-04-18T14:34:34.453Z,0.73
2024-04-18T14:37:01.302Z,0.90
2024-04-18T14:39:27.903Z,0.60
2024-04-18T14:41:54.607Z,1.00
2024-04-18T14:44:21.154Z,0.90
2024-04-18T14:46:47.680Z,0.85
2024-04-18T14:49:14.340Z,1.02
2024-04-18T14:51:43.048Z,0.98
2024-04-18T14:54:11.139Z,1.00
2024-04-18T14:56:39.786Z,1.20
2024-04-18T14:59:07.582Z,2.15
2024-04-18T15:01:34.989Z,1.40
2024-04-18T15:04:02.695Z,1.02
2024-04-18T15:06:30.803Z,1.13
2024-04-18T15:09:07.899Z,1.05
2024-04-18T15:11:35.478Z,1.52
2024-04-18T15:14:06.662Z,1.70
2024-04-18T15:16:36.618Z,1.50
2024-04-18T15:19:07.114Z,2.13
2024-04-18T15:21:35.379Z,1.10
2024-04-18T15:24:04.061Z,1.17
2024-04-18T15:26:30.632Z,0.98
2024-04-18T15:28:57.567Z,1.50
2024-04-18T15:31:25.889Z,1.08
2024-04-18T15:33:54.651Z,1.42
2024-04-18T15:36:21.439Z,1.33
2024-04-18T15:38:47.985Z,1.05
2024-04-18T15:41:14.740Z,1.13
2024-04-18T15:43:46.095Z,1.30
2024-04-18T15:46:16.032Z,1.50
2024-04-18T15:48:42.743Z,1.27
2024-04-18T15:51:18.520Z,1.08
2024-04-18T15:53:48.255Z,1.23
2024-04-18T15:56:17.069Z,1.08
2024-04-18T15:58:44.932Z,1.10
2024-04-18T16:01:13.565Z,0.95
2024-04-18T16:03:43.113Z,1.42
2024-04-18T16:06:10.921Z,1.67
2024-04-18T16:08:41.948Z,1.70
2024-04-18T16:11:10.180Z,1.60
2024-04-18T16:13:37.218Z,1.52
2024-04-18T16:18:47.753Z,1.10
2024-04-18T16:21:24.161Z,1.20
2024-04-18T16:23:50.732Z,1.58
2024-04-18T16:26:17.266Z,2.33
2024-04-18T16:28:43.831Z,1.35
2024-04-18T16:31:11.615Z,1.33
2024-04-18T16:33:39.965Z,1.48
2024-04-18T16:36:07.073Z,1.67
2024-04-18T16:38:34.433Z,1.27
2024-04-18T16:41:01.029Z,1.55
2024-04-18T16:43:27.758Z,2.28
2024-04-18T16:45:54.645Z,1.80
2024-04-18T16:48:22.060Z,1.45
2024-04-18T16:50:49.396Z,1.27
2024-04-18T16:53:16.088Z,1.30
2024-04-18T16:55:42.672Z,2.33
2024-04-18T16:58:09.312Z,0.90
2024-04-18T17:00:35.864Z,1.20
2024-04-18T17:03:02.845Z,1.98
2024-04-18T17:05:30.741Z,1.25
2024-04-18T17:07:57.336Z,1.23
2024-04-18T17:10:24.058Z,1.52
2024-04-18T17:12:50.614Z,1.58
2024-04-18T17:15:18.842Z,1.40
2024-04-18T17:17:47.057Z,1.20
2024-04-18T17:20:13.719Z,1.27
2024-04-18T17:22:41.319Z,1.35
2024-04-18T17:25:09.852Z,1.00
2024-04-18T17:27:36.838Z,1.02
2024-04-18T17:30:03.858Z,1.60
2024-04-18T17:32:31.690Z,1.23
2024-04-18T17:34:58.225Z,1.20
2024-04-18T17:37:24.812Z,1.27
2024-04-18T17:39:54.547Z,0.80
2024-04-18T17:42:23.068Z,1.20
2024-04-18T17:44:50.597Z,1.75
2024-04-18T17:47:17.599Z,0.90
2024-04-18T17:49:44.317Z,1.50
2024-04-18T17:52:10.965Z,1.13
2024-04-18T17:54:38.878Z,1.27
2024-04-18T17:57:05.717Z,0.85
2024-04-18T17:59:32.450Z,1.58
2024-04-18T18:01:59.128Z,1.33
2024-04-18T18:04:26.113Z,1.90
2024-04-18T18:06:54.276Z,1.30
2024-04-18T18:09:21.522Z,1.38
2024-04-18T18:11:48.207Z,1.27
2024-04-18T18:14:14.877Z,0.95
2024-04-18T18:16:41.574Z,1.33
2024-04-18T18:19:08.290Z,1.67
2024-04-18T18:21:35.664Z,1.27
2024-04-18T18:24:03.905Z,1.08
2024-04-18T18:26:30.809Z,1.52
2024-04-18T18:28:57.945Z,1.10
2024-04-18T18:31:25.439Z,1.48
2024-04-18T18:33:52.197Z,1.48
2024-04-18T18:36:21.366Z,1.27
2024-04-18T18:38:49.556Z,1.35
2024-04-18T18:41:16.220Z,1.90
2024-04-18T18:43:42.866Z,1.35
2024-04-18T18:46:10.115Z,0.90
2024-04-18T18:48:40.951Z,1.33
2024-04-18T18:51:09.230Z,1.30
2024-04-18T18:53:35.885Z,1.27
2024-04-18T18:56:02.699Z,1.23
2024-04-18T18:58:31.612Z,1.50
2024-04-18T19:01:08.856Z,1.27
2024-04-18T19:03:36.426Z,1.25
2024-04-18T19:06:03.401Z,1.30
2024-04-18T19:08:30.276Z,1.15
2024-04-18T19:10:57.974Z,1.42
2024-04-18T19:13:24.617Z,1.30
2024-04-18T19:15:58.799Z,1.30
2024-04-18T19:18:25.683Z,1.90
2024-04-18T19:20:52.372Z,1.50
2024-04-18T19:23:23.531Z,1.30
2024-04-18T19:25:50.919Z,1.65
2024-04-18T19:28:17.920Z,1.65
2024-04-18T19:30:44.521Z,1.50
2024-04-18T19:33:11.228Z,1.42
2024-04-18T19:35:37.855Z,1.65
2024-04-18T19:38:04.672Z,1.42
2024-04-18T19:40:31.398Z,1.73
2024-04-18T19:42:57.985Z,1.70
2024-04-18T19:45:24.704Z,2.70
2024-04-18T19:47:51.563Z,2.30
2024-04-18T19:50:18.170Z,2.05
2024-04-18T19:52:45.124Z,1.75
2024-04-18T19:55:11.955Z,1.85
2024-04-18T19:57:38.533Z,1.63
2024-04-18T20:00:06.042Z,1.60
2024-04-18T20:02:32.903Z,2.03
2024-04-18T20:04:59.625Z,1.48
2024-04-18T20:07:26.350Z,1.85
2024-04-18T20:09:53.144Z,1.85
2024-04-18T20:12:19.772Z,1.45
2024-04-18T20:14:47.460Z,2.15
2024-04-18T20:17:16.662Z,2.53
2024-04-18T20:19:43.612Z,1.92
2024-04-18T20:22:10.185Z,1.80
2024-04-18T20:24:36.882Z,1.52
2024-04-18T20:27:03.621Z,1.75
2024-04-18T20:29:30.206Z,2.15
2024-04-18T20:31:58.198Z,2.40
2024-04-18T20:34:24.780Z,2.20
2024-04-18T20:36:51.912Z,1.48
2024-04-18T20:39:19.593Z,2.22
2024-04-18T20:41:47.929Z,2.22
2024-04-18T20:44:14.544Z,1.80
2024-04-18T20:46:41.100Z,2.13
2024-04-18T20:49:07.907Z,1.70
2024-04-18T20:51:35.065Z,2.15
2024-04-18T20:54:04.286Z,1.95
2024-04-18T20:56:30.884Z,2.40
2024-04-18T20:58:58.645Z,2.35
2024-04-18T21:01:26.944Z,2.03
2024-04-18T21:03:53.764Z,3.20
2024-04-18T21:06:20.592Z,3.53
2024-04-18T21:08:47.318Z,1.50
2024-04-18T21:11:14.120Z,1.50
2024-04-18T21:13:40.820Z,2.60
2024-04-18T21:16:07.484Z,1.77
2024-04-18T21:18:34.357Z,2.05
2024-04-18T21:21:01.293Z,1.70
2024-04-18T21:23:27.968Z,2.40
2024-04-18T21:25:54.647Z,2.55
2024-04-18T21:28:21.298Z,2.65
2024-04-18T21:30:48.059Z,2.28
2024-04-18T21:33:14.897Z,2.20
2024-04-18T21:35:41.719Z,2.22
2024-04-18T21:38:08.533Z,2.60
2024-04-18T21:40:35.147Z,2.42
2024-04-18T21:43:04.236Z,3.17
2024-04-18T21:45:32.919Z,3.17
2024-04-18T21:48:00.785Z,4.05
2024-04-18T21:50:27.499Z,3.25
2024-04-18T21:52:54.162Z,3.97
2024-04-18T21:55:22.952Z,3.50
2024-04-18T21:57:50.226Z,3.90
2024-04-18T22:00:16.911Z,4.07
2024-04-18T22:02:43.562Z,3.65
2024-04-18T22:05:11.512Z,4.13
2024-04-18T22:07:38.165Z,4.95
2024-04-18T22:10:05.166Z,4.90
2024-04-18T22:12:32.059Z,4.90
2024-04-18T22:14:58.807Z,4.70
2024-04-18T22:17:25.469Z,4.65
2024-04-18T22:19:52.315Z,4.57
2024-04-18T22:22:18.913Z,5.32
2024-04-18T22:24:45.530Z,5.00
2024-04-18T22:27:13.002Z,5.57
2024-04-18T22:29:41.903Z,6.18
2024-04-18T22:32:08.549Z,5.78
2024-04-18T22:34:37.445Z,6.43
2024-04-18T22:37:04.699Z,6.10
2024-04-18T22:39:31.959Z,7.28
2024-04-18T22:41:58.749Z,7.57
2024-04-18T22:44:25.356Z,7.47
2024-04-18T22:46:51.962Z,6.35
2024-04-18T22:49:18.745Z,7.50
2024-04-18T22:51:45.508Z,6.28
2024-04-18T22:54:12.373Z,7.32
2024-04-18T22:56:39.019Z,8.05
2024-04-18T22:59:05.650Z,7.95
2024-04-18T23:01:32.353Z,9.52
2024-04-18T23:04:01.930Z,8.65
2024-04-18T23:06:28.726Z,8.57
2024-04-18T23:08:56.095Z,6.80
2024-04-18T23:11:23.234Z,6.70
2024-04-18T23:13:49.854Z,7.22
2024-04-18T23:16:16.532Z,7.40
2024-04-18T23:18:44.779Z,8.07
2024-04-18T23:21:11.676Z,7.65
2024-04-18T23:23:38.395Z,7.50
2024-04-18T23:26:05.103Z,8.27
2024-04-18T23:28:32.024Z,7.82
2024-04-18T23:30:58.725Z,8.10
2024-04-18T23:33:25.715Z,7.82
2024-04-18T23:35:53.884Z,8.38
2024-04-18T23:38:20.942Z,7.93
2024-04-18T23:40:47.674Z,7.93
2024-04-18T23:43:14.372Z,8.70
2024-04-18T23:45:41.079Z,8.23
2024-04-18T23:48:09.976Z,7.47
2024-04-18T23:50:36.797Z,8.70
2024-04-18T23:53:04.568Z,8.10
2024-04-18T23:55:32.576Z,9.38
2024-04-18T23:58:00.363Z,8.43
